sensor_id;sensor_type;location;lat;lon;timestamp;pressure;altitude;pressure_sealevel;temperature;humidity
27334;BME280;14817;57.104;-2.094;2023-01-20T00:01:21;99941.06;;;2.70;100.00
27334;BME280;14817;57.104;-2.094;2023-01-20T00:03:48;99939.34;;;2.69;100.00
27334;BME280;14817;57.104;-2.094;2023-01-20T00:06:15;99943.91;;;2.66;100.00
27334;BME280;14817;57.104;-2.094;2023-01-20T00:08:42;99941.63;;;2.62;100.00
27334;BME280;14817;57.104;-2.094;2023-01-20T00:11:10;99948.34;;;2.55;100.00
27334;BME280;14817;57.104;-2.094;2023-01-20T00:13:37;99961.00;;;2.62;100.00
27334;BME280;14817;57.104;-2.094;2023-01-20T00:16:04;99956.66;;;2.61;100.00
27334;BME280;14817;57.104;-2.094;2023-01-20T00:18:32;99964.94;;;2.57;100.00
27334;BME280;14817;57.104;-2.094;2023-01-20T00:21:07;99966.22;;;2.51;100.00
27334;BME280;14817;57.104;-2.094;2023-01-20T00:23:34;99971.22;;;2.43;100.00
27334;BME280;14817;57.104;-2.094;2023-01-20T00:26:04;99972.41;;;2.39;100.00
27334;BME280;14817;57.104;-2.094;2023-01-20T00:28:32;99971.81;;;2.35;100.00
27334;BME280;14817;57.104;-2.094;2023-01-20T00:31:08;99976.03;;;2.38;100.00
27334;BME280;14817;57.104;-2.094;2023-01-20T00:33:35;99969.19;;;2.35;100.00
27334;BME280;14817;57.104;-2.094;2023-01-20T00:38:39;99976.25;;;2.35;100.00
27334;BME280;14817;57.104;-2.094;2023-01-20T00:41:06;99989.59;;;2.33;100.00
27334;BME280;14817;57.104;-2.094;2023-01-20T00:43:33;99999.53;;;2.30;100.00
27334;BME280;14817;57.104;-2.094;2023-01-20T00:45:59;100004.19;;;2.26;100.00
27334;BME280;14817;57.104;-2.094;2023-01-20T00:48:26;100001.66;;;2.24;100.00
27334;BME280;14817;57.104;-2.094;2023-01-20T00:50:53;100007.56;;;2.28;100.00
27334;BME280;14817;57.104;-2.094;2023-01-20T00:53:19;100018.25;;;2.27;100.00
27334;BME280;14817;57.104;-2.094;2023-01-20T00:55:46;100032.69;;;2.34;100.00
27334;BME280;14817;57.104;-2.094;2023-01-20T00:58:13;100036.56;;;2.41;100.00
27334;BME280;14817;57.104;-2.094;2023-01-20T01:00:39;100021.78;;;2.38;100.00
27334;BME280;14817;57.104;-2.094;2023-01-20T01:03:06;100032.97;;;2.42;100.00
27334;BME280;14817;57.104;-2.094;2023-01-20T01:05:32;100037.44;;;2.41;100.00
27334;BME280;14817;57.104;-2.094;2023-01-20T01:07:59;100043.22;;;2.47;100.00
27334;BME280;14817;57.104;-2.094;2023-01-20T01:10:28;100050.66;;;2.41;100.00
27334;BME280;14817;57.104;-2.094;2023-01-20T01:12:54;100062.06;;;2.42;100.00
27334;BME280;14817;57.104;-2.094;2023-01-20T01:15:21;100072.38;;;2.45;100.00
27334;BME280;14817;57.104;-2.094;2023-01-20T01:17:48;100089.09;;;2.45;100.00
27334;BME280;14817;57.104;-2.094;2023-01-20T01:20:18;100091.00;;;2.43;100.00
27334;BME280;14817;57.104;-2.094;2023-01-20T01:22:44;100089.94;;;2.46;100.00
27334;BME280;14817;57.104;-2.094;2023-01-20T01:25:11;100098.59;;;2.48;100.00
27334;BME280;14817;57.104;-2.094;2023-01-20T01:27:38;100100.19;;;2.51;100.00
27334;BME280;14817;57.104;-2.094;2023-01-20T01:30:05;100100.06;;;2.52;100.00
27334;BME280;14817;57.104;-2.094;2023-01-20T01:32:32;100105.81;;;2.46;100.00
27334;BME280;14817;57.104;-2.094;2023-01-20T01:34:58;100120.91;;;2.44;100.00
27334;BME280;14817;57.104;-2.094;2023-01-20T01:37:26;100127.38;;;2.40;100.00
27334;BME280;14817;57.104;-2.094;2023-01-20T01:39:53;100138.16;;;2.37;100.00
27334;BME280;14817;57.104;-2.094;2023-01-20T01:42:22;100131.53;;;2.31;100.00
27334;BME280;14817;57.104;-2.094;2023-01-20T01:45:13;100139.56;;;2.30;100.00
27334;BME280;14817;57.104;-2.094;2023-01-20T01:48:02;100146.97;;;2.24;100.00
27334;BME280;14817;57.104;-2.094;2023-01-20T01:50:32;100149.81;;;2.21;100.00
27334;BME280;14817;57.104;-2.094;2023-01-20T01:53:00;100158.06;;;2.17;100.00
27334;BME280;14817;57.104;-2.094;2023-01-20T01:55:28;100161.13;;;2.11;100.00
27334;BME280;14817;57.104;-2.094;2023-01-20T01:57:55;100156.19;;;2.06;100.00
27334;BME280;14817;57.104;-2.094;2023-01-20T02:00:24;100163.78;;;1.98;100.00
27334;BME280;14817;57.104;-2.094;2023-01-20T02:02:50;100169.06;;;1.98;100.00
27334;BME280;14817;57.104;-2.094;2023-01-20T02:05:17;100176.25;;;1.96;100.00
27334;BME280;14817;57.104;-2.094;2023-01-20T02:07:45;100175.31;;;1.97;100.00
27334;BME280;14817;57.104;-2.094;2023-01-20T02:10:13;100175.31;;;1.97;100.00
27334;BME280;14817;57.104;-2.094;2023-01-20T02:12:40;100190.31;;;1.96;100.00
27334;BME280;14817;57.104;-2.094;2023-01-20T02:15:07;100189.69;;;1.93;100.00
27334;BME280;14817;57.104;-2.094;2023-01-20T02:17:39;100198.53;;;1.92;100.00
27334;BME280;14817;57.104;-2.094;2023-01-20T02:23:03;100205.09;;;1.99;100.00
27334;BME280;14817;57.104;-2.094;2023-01-20T02:33:47;100221.06;;;2.10;100.00
27334;BME280;14817;57.104;-2.094;2023-01-20T02:36:10;100218.09;;;2.15;100.00
27334;BME280;14817;57.104;-2.094;2023-01-20T02:38:46;100219.16;;;2.12;100.00
27334;BME280;14817;57.104;-2.094;2023-01-20T02:41:25;100222.53;;;2.14;100.00
27334;BME280;14817;57.104;-2.094;2023-01-20T02:44:02;100219.66;;;2.17;100.00
27334;BME280;14817;57.104;-2.094;2023-01-20T02:46:39;100233.63;;;2.19;100.00
27334;BME280;14817;57.104;-2.094;2023-01-20T02:49:26;100251.25;;;2.19;100.00
27334;BME280;14817;57.104;-2.094;2023-01-20T02:52:28;100258.78;;;2.25;100.00
27334;BME280;14817;57.104;-2.094;2023-01-20T02:54:51;100266.78;;;2.23;100.00
27334;BME280;14817;57.104;-2.094;2023-01-20T02:57:20;100265.44;;;2.18;100.00
27334;BME280;14817;57.104;-2.094;2023-01-20T02:59:50;100263.81;;;2.15;100.00
27334;BME280;14817;57.104;-2.094;2023-01-20T03:02:20;100263.41;;;2.09;100.00
27334;BME280;14817;57.104;-2.094;2023-01-20T03:04:51;100262.88;;;2.03;100.00
27334;BME280;14817;57.104;-2.094;2023-01-20T03:07:19;100265.63;;;2.02;100.00
27334;BME280;14817;57.104;-2.094;2023-01-20T03:09:49;100262.34;;;1.98;100.00
27334;BME280;14817;57.104;-2.094;2023-01-20T03:12:21;100267.94;;;1.94;100.00
27334;BME280;14817;57.104;-2.094;2023-01-20T03:14:49;100267.41;;;1.89;100.00
27334;BME280;14817;57.104;-2.094;2023-01-20T03:17:20;100272.59;;;1.90;100.00
27334;BME280;14817;57.104;-2.094;2023-01-20T03:19:47;100268.91;;;1.93;100.00
27334;BME280;14817;57.104;-2.094;2023-01-20T03:22:15;100278.72;;;1.91;100.00
27334;BME280;14817;57.104;-2.094;2023-01-20T03:24:42;100280.59;;;1.89;100.00
27334;BME280;14817;57.104;-2.094;2023-01-20T03:27:09;100283.66;;;1.82;100.00
27334;BME280;14817;57.104;-2.094;2023-01-20T03:29:36;100286.19;;;1.84;100.00
27334;BME280;14817;57.104;-2.094;2023-01-20T03:32:03;100282.91;;;1.80;100.00
27334;BME280;14817;57.104;-2.094;2023-01-20T03:34:32;100292.41;;;1.83;100.00
27334;BME280;14817;57.104;-2.094;2023-01-20T03:37:01;100300.47;;;1.81;100.00
27334;BME280;14817;57.104;-2.094;2023-01-20T03:39:29;100306.75;;;1.79;100.00
27334;BME280;14817;57.104;-2.094;2023-01-20T03:42:11;100312.03;;;1.79;100.00
27334;BME280;14817;57.104;-2.094;2023-01-20T03:44:44;100314.81;;;1.77;100.00
27334;BME280;14817;57.104;-2.094;2023-01-20T03:47:33;100318.06;;;1.81;100.00
27334;BME280;14817;57.104;-2.094;2023-01-20T03:58:01;100315.03;;;1.87;100.00
27334;BME280;14817;57.104;-2.094;2023-01-20T04:00:31;100329.50;;;1.81;100.00
27334;BME280;14817;57.104;-2.094;2023-01-20T04:02:59;100335.72;;;1.80;100.00
27334;BME280;14817;57.104;-2.094;2023-01-20T04:05:29;100328.00;;;1.77;100.00
27334;BME280;14817;57.104;-2.094;2023-01-20T04:07:56;100336.03;;;1.76;100.00
27334;BME280;14817;57.104;-2.094;2023-01-20T04:10:25;100342.13;;;1.76;100.00
27334;BME280;14817;57.104;-2.094;2023-01-20T04:12:53;100342.44;;;1.72;100.00
27334;BME280;14817;57.104;-2.094;2023-01-20T04:15:20;100353.84;;;1.72;100.00
27334;BME280;14817;57.104;-2.094;2023-01-20T04:17:47;100355.66;;;1.72;100.00
27334;BME280;14817;57.104;-2.094;2023-01-20T04:20:14;100349.41;;;1.73;100.00
27334;BME280;14817;57.104;-2.094;2023-01-20T04:22:43;100350.28;;;1.73;100.00
27334;BME280;14817;57.104;-2.094;2023-01-20T04:25:19;100358.94;;;1.75;100.00
27334;BME280;14817;57.104;-2.094;2023-01-20T04:27:48;100362.34;;;1.77;100.00
27334;BME280;14817;57.104;-2.094;2023-01-20T04:30:15;100362.97;;;1.81;100.00
27334;BME280;14817;57.104;-2.094;2023-01-20T04:32:42;100357.88;;;1.78;100.00
27334;BME280;14817;57.104;-2.094;2023-01-20T04:35:12;100359.56;;;1.79;100.00
27334;BME280;14817;57.104;-2.094;2023-01-20T04:37:39;100367.63;;;1.77;100.00
27334;BME280;14817;57.104;-2.094;2023-01-20T04:40:06;100380.16;;;1.74;100.00
27334;BME280;14817;57.104;-2.094;2023-01-20T04:42:34;100366.50;;;1.67;100.00
27334;BME280;14817;57.104;-2.094;2023-01-20T04:45:00;100370.28;;;1.63;100.00
27334;BME280;14817;57.104;-2.094;2023-01-20T04:47:30;100386.31;;;1.60;100.00
27334;BME280;14817;57.104;-2.094;2023-01-20T04:49:57;100383.13;;;1.55;100.00
27334;BME280;14817;57.104;-2.094;2023-01-20T04:52:24;100377.94;;;1.53;100.00
27334;BME280;14817;57.104;-2.094;2023-01-20T04:54:50;100396.63;;;1.50;100.00
27334;BME280;14817;57.104;-2.094;2023-01-20T04:57:17;100399.34;;;1.49;100.00
27334;BME280;14817;57.104;-2.094;2023-01-20T04:59:45;100400.09;;;1.51;100.00
27334;BME280;14817;57.104;-2.094;2023-01-20T05:02:11;100402.81;;;1.49;100.00
27334;BME280;14817;57.104;-2.094;2023-01-20T05:04:38;100410.09;;;1.46;100.00
27334;BME280;14817;57.104;-2.094;2023-01-20T05:07:05;100408.22;;;1.48;100.00
27334;BME280;14817;57.104;-2.094;2023-01-20T05:09:31;100415.38;;;1.46;100.00
27334;BME280;14817;57.104;-2.094;2023-01-20T05:11:59;100419.06;;;1.43;100.00
27334;BME280;14817;57.104;-2.094;2023-01-20T05:14:25;100420.84;;;1.42;100.00
27334;BME280;14817;57.104;-2.094;2023-01-20T05:16:52;100429.03;;;1.38;100.00
27334;BME280;14817;57.104;-2.094;2023-01-20T05:19:19;100444.03;;;1.37;100.00
27334;BME280;14817;57.104;-2.094;2023-01-20T05:21:45;100450.91;;;1.40;100.00
27334;BME280;14817;57.104;-2.094;2023-01-20T05:24:12;100453.38;;;1.43;100.00
27334;BME280;14817;57.104;-2.094;2023-01-20T05:26:38;100459.78;;;1.39;100.00
27334;BME280;14817;57.104;-2.094;2023-01-20T05:29:05;100455.25;;;1.41;100.00
27334;BME280;14817;57.104;-2.094;2023-01-20T05:31:32;100466.66;;;1.41;100.00
27334;BME280;14817;57.104;-2.094;2023-01-20T05:33:58;100478.88;;;1.42;100.00
27334;BME280;14817;57.104;-2.094;2023-01-20T05:36:25;100467.78;;;1.37;100.00
27334;BME280;14817;57.104;-2.094;2023-01-20T05:38:53;100485.28;;;1.38;100.00
27334;BME280;14817;57.104;-2.094;2023-01-20T05:41:20;100480.03;;;1.38;100.00
27334;BME280;14817;57.104;-2.094;2023-01-20T05:43:47;100494.25;;;1.36;100.00
27334;BME280;14817;57.104;-2.094;2023-01-20T05:46:13;100489.81;;;1.36;100.00
27334;BME280;14817;57.104;-2.094;2023-01-20T05:48:40;100503.75;;;1.38;100.00
27334;BME280;14817;57.104;-2.094;2023-01-20T05:51:07;100499.25;;;1.40;100.00
27334;BME280;14817;57.104;-2.094;2023-01-20T05:53:34;100492.47;;;1.36;100.00
27334;BME280;14817;57.104;-2.094;2023-01-20T05:56:01;100499.44;;;1.37;100.00
27334;BME280;14817;57.104;-2.094;2023-01-20T05:58:28;100499.44;;;1.37;100.00
27334;BME280;14817;57.104;-2.094;2023-01-20T06:01:02;100501.25;;;1.37;100.00
27334;BME280;14817;57.104;-2.094;2023-01-20T06:03:29;100505.66;;;1.36;100.00
27334;BME280;14817;57.104;-2.094;2023-01-20T06:06:00;100508.19;;;1.38;100.00
27334;BME280;14817;57.104;-2.094;2023-01-20T06:08:27;100509.63;;;1.43;100.00
27334;BME280;14817;57.104;-2.094;2023-01-20T06:10:53;100515.47;;;1.49;100.00
27334;BME280;14817;57.104;-2.094;2023-01-20T06:13:20;100523.22;;;1.52;100.00
27334;BME280;14817;57.104;-2.094;2023-01-20T06:15:53;100530.16;;;1.53;100.00
27334;BME280;14817;57.104;-2.094;2023-01-20T06:18:20;100540.72;;;1.53;100.00
27334;BME280;14817;57.104;-2.094;2023-01-20T06:20:47;100540.72;;;1.53;100.00
27334;BME280;14817;57.104;-2.094;2023-01-20T06:23:14;100544.97;;;1.55;100.00
27334;BME280;14817;57.104;-2.094;2023-01-20T06:25:41;100550.81;;;1.60;100.00
27334;BME280;14817;57.104;-2.094;2023-01-20T06:28:08;100545.53;;;1.60;100.00
27334;BME280;14817;57.104;-2.094;2023-01-20T06:30:36;100557.50;;;1.66;100.00
27334;BME280;14817;57.104;-2.094;2023-01-20T06:33:03;100561.84;;;1.67;100.00
27334;BME280;14817;57.104;-2.094;2023-01-20T06:35:36;100567.28;;;1.64;100.00
27334;BME280;14817;57.104;-2.094;2023-01-20T06:38:03;100575.22;;;1.64;100.00
27334;BME280;14817;57.104;-2.094;2023-01-20T06:40:30;100578.06;;;1.61;100.00
27334;BME280;14817;57.104;-2.094;2023-01-20T06:42:57;100577.28;;;1.59;100.00
27334;BME280;14817;57.104;-2.094;2023-01-20T06:45:23;100581.72;;;1.58;100.00
27334;BME280;14817;57.104;-2.094;2023-01-20T06:47:50;100587.09;;;1.57;100.00
27334;BME280;14817;57.104;-2.094;2023-01-20T06:50:17;100586.25;;;1.56;100.00
27334;BME280;14817;57.104;-2.094;2023-01-20T06:52:44;100592.56;;;1.54;100.00
27334;BME280;14817;57.104;-2.094;2023-01-20T06:55:10;100605.38;;;1.46;100.00
27334;BME280;14817;57.104;-2.094;2023-01-20T06:57:37;100602.06;;;1.42;100.00
27334;BME280;14817;57.104;-2.094;2023-01-20T07:00:04;100603.38;;;1.35;100.00
27334;BME280;14817;57.104;-2.094;2023-01-20T07:02:31;100613.19;;;1.33;100.00
27334;BME280;14817;57.104;-2.094;2023-01-20T07:04:57;100614.94;;;1.32;100.00
27334;BME280;14817;57.104;-2.094;2023-01-20T07:07:25;100615.50;;;1.23;100.00
27334;BME280;14817;57.104;-2.094;2023-01-20T07:09:55;100620.28;;;1.16;100.00
27334;BME280;14817;57.104;-2.094;2023-01-20T07:12:22;100628.38;;;1.13;100.00
27334;BME280;14817;57.104;-2.094;2023-01-20T07:14:48;100630.28;;;1.11;100.00
27334;BME280;14817;57.104;-2.094;2023-01-20T07:17:15;100636.31;;;1.13;100.00
27334;BME280;14817;57.104;-2.094;2023-01-20T07:19:41;100640.91;;;1.10;100.00
27334;BME280;14817;57.104;-2.094;2023-01-20T07:22:08;100649.72;;;1.09;100.00
27334;BME280;14817;57.104;-2.094;2023-01-20T07:24:35;100648.06;;;1.08;100.00
27334;BME280;14817;57.104;-2.094;2023-01-20T07:27:02;100658.69;;;1.06;100.00
27334;BME280;14817;57.104;-2.094;2023-01-20T07:29:29;100660.47;;;1.06;100.00
27334;BME280;14817;57.104;-2.094;2023-01-20T07:31:55;100673.56;;;1.07;100.00
27334;BME280;14817;57.104;-2.094;2023-01-20T07:34:22;100670.47;;;1.15;100.00
27334;BME280;14817;57.104;-2.094;2023-01-20T07:36:50;100670.66;;;1.12;100.00
27334;BME280;14817;57.104;-2.094;2023-01-20T07:39:17;100665.41;;;1.12;100.00
27334;BME280;14817;57.104;-2.094;2023-01-20T07:41:45;100667.84;;;1.15;100.00
27334;BME280;14817;57.104;-2.094;2023-01-20T07:44:15;100680.34;;;1.27;100.00
27334;BME280;14817;57.104;-2.094;2023-01-20T07:46:42;100687.69;;;1.22;100.00
27334;BME280;14817;57.104;-2.094;2023-01-20T07:49:09;100690.31;;;1.22;100.00
27334;BME280;14817;57.104;-2.094;2023-01-20T07:51:37;100696.34;;;1.24;100.00
27334;BME280;14817;57.104;-2.094;2023-01-20T07:54:05;100708.00;;;1.20;100.00
27334;BME280;14817;57.104;-2.094;2023-01-20T07:56:32;100715.25;;;1.16;100.00
27334;BME280;14817;57.104;-2.094;2023-01-20T07:58:58;100717.97;;;1.15;100.00
27334;BME280;14817;57.104;-2.094;2023-01-20T08:01:26;100729.53;;;1.12;100.00
27334;BME280;14817;57.104;-2.094;2023-01-20T08:03:53;100737.72;;;1.08;100.00
27334;BME280;14817;57.104;-2.094;2023-01-20T08:06:21;100748.44;;;1.05;100.00
27334;BME280;14817;57.104;-2.094;2023-01-20T08:08:48;100748.59;;;1.01;100.00
27334;BME280;14817;57.104;-2.094;2023-01-20T08:11:16;100758.56;;;0.96;100.00
27334;BME280;14817;57.104;-2.094;2023-01-20T08:13:43;100762.38;;;0.91;100.00
27334;BME280;14817;57.104;-2.094;2023-01-20T08:16:11;100767.66;;;0.91;100.00
27334;BME280;14817;57.104;-2.094;2023-01-20T08:18:38;100770.56;;;0.86;100.00
27334;BME280;14817;57.104;-2.094;2023-01-20T08:21:06;100768.16;;;0.81;100.00
27334;BME280;14817;57.104;-2.094;2023-01-20T08:23:34;100774.97;;;0.86;100.00
27334;BME280;14817;57.104;-2.094;2023-01-20T08:26:02;100770.63;;;0.85;100.00
27334;BME280;14817;57.104;-2.094;2023-01-20T08:28:29;100782.72;;;0.89;100.00
27334;BME280;14817;57.104;-2.094;2023-01-20T08:31:06;100781.09;;;0.86;100.00
27334;BME280;14817;57.104;-2.094;2023-01-20T08:33:35;100785.41;;;0.87;100.00
27334;BME280;14817;57.104;-2.094;2023-01-20T08:36:09;100785.53;;;0.86;100.00
27334;BME280;14817;57.104;-2.094;2023-01-20T08:38:36;100785.69;;;0.82;100.00
27334;BME280;14817;57.104;-2.094;2023-01-20T08:41:10;100789.25;;;0.81;100.00
27334;BME280;14817;57.104;-2.094;2023-01-20T08:43:37;100796.16;;;0.84;100.00
27334;BME280;14817;57.104;-2.094;2023-01-20T08:46:05;100806.06;;;0.79;100.00
27334;BME280;14817;57.104;-2.094;2023-01-20T08:48:33;100798.84;;;0.82;100.00
27334;BME280;14817;57.104;-2.094;2023-01-20T08:51:03;100800.47;;;0.85;100.00
27334;BME280;14817;57.104;-2.094;2023-01-20T08:53:30;100804.38;;;0.94;100.00
27334;BME280;14817;57.104;-2.094;2023-01-20T08:55:58;100805.09;;;0.97;100.00
27334;BME280;14817;57.104;-2.094;2023-01-20T08:58:25;100809.84;;;1.07;100.00
27334;BME280;14817;57.104;-2.094;2023-01-20T09:00:53;100824.84;;;1.22;100.00
27334;BME280;14817;57.104;-2.094;2023-01-20T09:03:20;100817.25;;;1.48;100.00
27334;BME280;14817;57.104;-2.094;2023-01-20T09:05:47;100826.19;;;1.61;100.00
27334;BME280;14817;57.104;-2.094;2023-01-20T09:08:14;100822.22;;;1.84;100.00
27334;BME280;14817;57.104;-2.094;2023-01-20T09:10:42;100823.00;;;2.00;100.00
27334;BME280;14817;57.104;-2.094;2023-01-20T09:13:09;100832.72;;;2.00;100.00
27334;BME280;14817;57.104;-2.094;2023-01-20T09:15:36;100838.75;;;2.18;100.00
27334;BME280;14817;57.104;-2.094;2023-01-20T09:18:03;100837.34;;;2.41;100.00
27334;BME280;14817;57.104;-2.094;2023-01-20T09:20:30;100836.81;;;2.50;100.00
27334;BME280;14817;57.104;-2.094;2023-01-20T09:22:59;100840.59;;;2.75;100.00
27334;BME280;14817;57.104;-2.094;2023-01-20T09:25:26;100844.47;;;2.69;100.00
27334;BME280;14817;57.104;-2.094;2023-01-20T09:27:53;100842.28;;;3.04;100.00
27334;BME280;14817;57.104;-2.094;2023-01-20T09:30:19;100851.25;;;3.16;100.00
27334;BME280;14817;57.104;-2.094;2023-01-20T09:32:47;100852.97;;;3.44;100.00
27334;BME280;14817;57.104;-2.094;2023-01-20T09:35:14;100859.63;;;3.37;100.00
27334;BME280;14817;57.104;-2.094;2023-01-20T09:37:41;100864.09;;;3.22;100.00
27334;BME280;14817;57.104;-2.094;2023-01-20T09:40:29;100860.91;;;3.59;100.00
27334;BME280;14817;57.104;-2.094;2023-01-20T09:52:16;100886.44;;;4.14;100.00
27334;BME280;14817;57.104;-2.094;2023-01-20T09:55:13;100888.09;;;4.15;100.00
27334;BME280;14817;57.104;-2.094;2023-01-20T09:57:43;100884.00;;;4.24;100.00
27334;BME280;14817;57.104;-2.094;2023-01-20T10:00:15;100893.69;;;4.38;100.00
27334;BME280;14817;57.104;-2.094;2023-01-20T10:02:45;100894.75;;;4.61;100.00
27334;BME280;14817;57.104;-2.094;2023-01-20T10:05:16;100898.78;;;4.54;100.00
27334;BME280;14817;57.104;-2.094;2023-01-20T10:12:41;100908.75;;;5.14;100.00
27334;BME280;14817;57.104;-2.094;2023-01-20T10:20:18;100916.59;;;5.41;100.00
27334;BME280;14817;57.104;-2.094;2023-01-20T10:22:51;100913.34;;;5.25;100.00
27334;BME280;14817;57.104;-2.094;2023-01-20T10:25:21;100921.19;;;5.26;100.00
27334;BME280;14817;57.104;-2.094;2023-01-20T10:27:53;100923.31;;;5.21;100.00
27334;BME280;14817;57.104;-2.094;2023-01-20T10:30:22;100923.84;;;5.26;100.00
27334;BME280;14817;57.104;-2.094;2023-01-20T10:32:56;100927.25;;;5.16;100.00
27334;BME280;14817;57.104;-2.094;2023-01-20T10:35:25;100935.69;;;5.59;100.00
27334;BME280;14817;57.104;-2.094;2023-01-20T10:37:53;100938.94;;;5.26;100.00
27334;BME280;14817;57.104;-2.094;2023-01-20T10:43:15;100946.25;;;5.22;100.00
27334;BME280;14817;57.104;-2.094;2023-01-20T10:53:55;100948.34;;;5.56;100.00
27334;BME280;14817;57.104;-2.094;2023-01-20T10:56:32;100958.56;;;5.36;100.00
27334;BME280;14817;57.104;-2.094;2023-01-20T10:59:12;100967.72;;;4.94;100.00
27334;BME280;14817;57.104;-2.094;2023-01-20T11:01:43;100963.97;;;4.83;100.00
27334;BME280;14817;57.104;-2.094;2023-01-20T11:04:17;100973.75;;;4.83;100.00
27334;BME280;14817;57.104;-2.094;2023-01-20T11:06:49;100975.72;;;4.66;100.00
27334;BME280;14817;57.104;-2.094;2023-01-20T11:09:34;100979.00;;;4.57;100.00
27334;BME280;14817;57.104;-2.094;2023-01-20T11:12:05;100974.19;;;4.49;100.00
27334;BME280;14817;57.104;-2.094;2023-01-20T11:14:42;100984.88;;;4.88;100.00
27334;BME280;14817;57.104;-2.094;2023-01-20T11:17:13;100986.28;;;4.81;100.00
27334;BME280;14817;57.104;-2.094;2023-01-20T11:22:13;100986.81;;;4.86;100.00
27334;BME280;14817;57.104;-2.094;2023-01-20T11:24:48;100976.88;;;4.62;100.00
27334;BME280;14817;57.104;-2.094;2023-01-20T11:27:21;100986.16;;;4.69;100.00
27334;BME280;14817;57.104;-2.094;2023-01-20T11:30:02;100978.38;;;4.66;100.00
27334;BME280;14817;57.104;-2.094;2023-01-20T11:32:35;100986.84;;;4.46;100.00
27334;BME280;14817;57.104;-2.094;2023-01-20T11:35:21;100980.69;;;4.58;100.00
27334;BME280;14817;57.104;-2.094;2023-01-20T11:37:52;100993.91;;;4.73;100.00
27334;BME280;14817;57.104;-2.094;2023-01-20T11:40:23;100995.50;;;4.48;100.00
27334;BME280;14817;57.104;-2.094;2023-01-20T11:42:54;100997.28;;;4.35;100.00
27334;BME280;14817;57.104;-2.094;2023-01-20T11:45:34;101006.06;;;4.62;100.00
27334;BME280;14817;57.104;-2.094;2023-01-20T11:50:35;100998.25;;;4.34;100.00
27334;BME280;14817;57.104;-2.094;2023-01-20T11:53:11;101012.16;;;4.10;100.00
27334;BME280;14817;57.104;-2.094;2023-01-20T11:55:45;101019.19;;;4.24;100.00
27334;BME280;14817;57.104;-2.094;2023-01-20T11:58:18;101026.09;;;4.26;100.00
27334;BME280;14817;57.104;-2.094;2023-01-20T12:00:45;101030.84;;;4.21;100.00
27334;BME280;14817;57.104;-2.094;2023-01-20T12:05:52;101032.47;;;4.09;100.00
27334;BME280;14817;57.104;-2.094;2023-01-20T12:08:25;101044.19;;;4.20;100.00
27334;BME280;14817;57.104;-2.094;2023-01-20T12:10:54;101043.34;;;4.19;100.00
27334;BME280;14817;57.104;-2.094;2023-01-20T12:13:27;101051.47;;;4.30;100.00
27334;BME280;14817;57.104;-2.094;2023-01-20T12:15:54;101052.22;;;4.33;100.00
27334;BME280;14817;57.104;-2.094;2023-01-20T12:18:42;101062.97;;;4.17;100.00
27334;BME280;14817;57.104;-2.094;2023-01-20T12:21:33;101063.66;;;4.06;100.00
27334;BME280;14817;57.104;-2.094;2023-01-20T12:26:36;101083.34;;;3.87;100.00
27334;BME280;14817;57.104;-2.094;2023-01-20T12:31:32;101088.06;;;3.97;100.00
27334;BME280;14817;57.104;-2.094;2023-01-20T12:34:00;101083.25;;;4.03;100.00
27334;BME280;14817;57.104;-2.094;2023-01-20T12:36:44;101094.00;;;4.15;100.00
27334;BME280;14817;57.104;-2.094;2023-01-20T13:02:15;101135.94;;;3.79;100.00
27334;BME280;14817;57.104;-2.094;2023-01-20T13:04:58;101142.84;;;3.82;100.00
27334;BME280;14817;57.104;-2.094;2023-01-20T13:10:02;101140.41;;;3.79;100.00
27334;BME280;14817;57.104;-2.094;2023-01-20T13:12:42;101143.31;;;4.03;100.00
27334;BME280;14817;57.104;-2.094;2023-01-20T13:20:15;101159.50;;;3.84;100.00
27334;BME280;14817;57.104;-2.094;2023-01-20T13:22:46;101156.50;;;3.76;100.00
27334;BME280;14817;57.104;-2.094;2023-01-20T13:25:14;101164.53;;;3.74;100.00
27334;BME280;14817;57.104;-2.094;2023-01-20T13:27:42;101161.09;;;3.72;100.00
27334;BME280;14817;57.104;-2.094;2023-01-20T13:33:05;101184.56;;;3.64;100.00
27334;BME280;14817;57.104;-2.094;2023-01-20T13:35:52;101176.81;;;3.75;100.00
27334;BME280;14817;57.104;-2.094;2023-01-20T13:38:25;101177.66;;;3.61;100.00
27334;BME280;14817;57.104;-2.094;2023-01-20T13:40:57;101180.84;;;3.66;100.00
27334;BME280;14817;57.104;-2.094;2023-01-20T13:48:31;101193.25;;;3.66;100.00
27334;BME280;14817;57.104;-2.094;2023-01-20T13:53:44;101194.88;;;3.68;100.00
27334;BME280;14817;57.104;-2.094;2023-01-20T13:56:30;101198.69;;;3.79;100.00
27334;BME280;14817;57.104;-2.094;2023-01-20T13:59:00;101201.00;;;3.99;100.00
27334;BME280;14817;57.104;-2.094;2023-01-20T14:01:26;101205.22;;;3.87;100.00
27334;BME280;14817;57.104;-2.094;2023-01-20T14:04:06;101212.13;;;3.76;100.00
27334;BME280;14817;57.104;-2.094;2023-01-20T14:06:46;101206.53;;;3.80;100.00
27334;BME280;14817;57.104;-2.094;2023-01-20T14:11:49;101218.66;;;3.84;100.00
27334;BME280;14817;57.104;-2.094;2023-01-20T14:14:18;101218.31;;;3.91;100.00
27334;BME280;14817;57.104;-2.094;2023-01-20T14:16:45;101211.75;;;3.96;100.00
27334;BME280;14817;57.104;-2.094;2023-01-20T14:21:55;101206.47;;;3.96;100.00
27334;BME280;14817;57.104;-2.094;2023-01-20T14:24:31;101209.28;;;4.07;100.00
27334;BME280;14817;57.104;-2.094;2023-01-20T14:27:32;101206.94;;;4.03;100.00
27334;BME280;14817;57.104;-2.094;2023-01-20T14:29:57;101212.16;;;4.04;100.00
27334;BME280;14817;57.104;-2.094;2023-01-20T14:32:37;101221.41;;;4.12;100.00
27334;BME280;14817;57.104;-2.094;2023-01-20T14:35:17;101214.34;;;4.12;100.00
27334;BME280;14817;57.104;-2.094;2023-01-20T14:37:48;101222.00;;;4.02;100.00
27334;BME280;14817;57.104;-2.094;2023-01-20T14:40:18;101230.59;;;3.92;100.00
27334;BME280;14817;57.104;-2.094;2023-01-20T14:45:22;101241.91;;;3.79;100.00
27334;BME280;14817;57.104;-2.094;2023-01-20T14:47:49;101246.63;;;3.74;100.00